createdAt,value
2019-06-20T00:01:17.777Z,22.00
2019-06-20T00:03:46.173Z,22.00
2019-06-20T00:06:14.572Z,22.00
2019-06-20T00:08:42.949Z,21.90
2019-06-20T00:11:11.379Z,21.90
2019-06-20T00:13:39.809Z,21.90
2019-06-20T00:16:08.209Z,21.90
2019-06-20T00:18:36.601Z,21.90
2019-06-20T00:21:05.026Z,21.90
2019-06-20T00:23:33.447Z,21.90
2019-06-20T00:26:01.806Z,21.90
2019-06-20T00:28:30.237Z,21.80
2019-06-20T00:30:58.635Z,21.80
2019-06-20T00:33:27.029Z,21.80
2019-06-20T00:35:55.436Z,21.80
2019-06-20T00:38:23.825Z,21.80
2019-06-20T00:40:52.225Z,21.70
2019-06-20T00:43:20.654Z,21.70
2019-06-20T00:45:49.051Z,21.70
2019-06-20T00:48:17.431Z,21.70
2019-06-20T00:50:45.848Z,21.70
2019-06-20T00:53:14.244Z,21.60
2019-06-20T00:55:42.598Z,21.60
2019-06-20T00:58:11.012Z,21.60
2019-06-20T01:00:39.399Z,21.50
2019-06-20T01:03:07.803Z,21.50
2019-06-20T01:05:36.217Z,21.50
2019-06-20T01:08:04.587Z,21.50
2019-06-20T01:10:32.965Z,21.40
2019-06-20T01:13:01.662Z,21.40
2019-06-20T01:15:30.032Z,21.30
2019-06-20T01:17:58.423Z,21.30
2019-06-20T01:20:26.859Z,21.20
2019-06-20T01:22:55.228Z,21.20
2019-06-20T01:25:37.661Z,21.20
2019-06-20T01:28:06.040Z,21.20
2019-06-20T01:30:34.431Z,21.20
2019-06-20T01:33:02.846Z,21.20
2019-06-20T01:35:31.218Z,21.30
2019-06-20T01:37:59.630Z,21.20
2019-06-20T01:40:28.051Z,21.30
2019-06-20T01:42:56.434Z,21.30
2019-06-20T01:45:24.859Z,21.20
2019-06-20T01:47:53.262Z,21.20
2019-06-20T01:50:21.669Z,21.20
2019-06-20T01:52:50.070Z,21.20
2019-06-20T01:55:18.450Z,21.10
2019-06-20T01:57:46.873Z,21.10
2019-06-20T02:00:34.905Z,21.10
2019-06-20T02:03:03.369Z,21.10
2019-06-20T02:05:31.784Z,21.20
2019-06-20T02:08:00.177Z,21.10
2019-06-20T02:10:29.956Z,21.20
2019-06-20T02:12:58.375Z,21.10
2019-06-20T02:15:26.772Z,21.10
2019-06-20T02:17:55.162Z,21.10
2019-06-20T02:20:49.714Z,21.00
2019-06-20T02:23:18.197Z,21.00
2019-06-20T02:25:46.568Z,21.00
2019-06-20T02:28:15.411Z,21.00
2019-06-20T02:30:43.863Z,21.00
2019-06-20T02:33:12.316Z,21.00
2019-06-20T02:35:40.703Z,21.00
2019-06-20T02:38:09.187Z,21.00
2019-06-20T02:40:39.303Z,21.00
2019-06-20T02:43:07.671Z,21.00
2019-06-20T02:45:36.157Z,21.00
2019-06-20T02:48:05.375Z,21.00
2019-06-20T02:50:33.834Z,21.00
2019-06-20T02:53:03.616Z,21.00
2019-06-20T02:55:32.005Z,21.00
2019-06-20T02:58:00.392Z,21.00
2019-06-20T03:00:54.891Z,21.00
2019-06-20T03:03:23.355Z,21.00
2019-06-20T03:05:51.746Z,20.90
2019-06-20T03:08:20.147Z,20.90
2019-06-20T03:10:48.540Z,20.90
2019-06-20T03:13:16.915Z,20.90
2019-06-20T03:15:45.369Z,20.90
2019-06-20T03:18:13.727Z,20.90
2019-06-20T03:20:42.115Z,20.90
2019-06-20T03:23:10.565Z,20.90
2019-06-20T03:25:38.947Z,20.90
2019-06-20T03:28:07.316Z,20.90
2019-06-20T03:30:35.760Z,20.90
2019-06-20T03:33:04.155Z,20.90
2019-06-20T03:35:32.536Z,21.00
2019-06-20T03:38:00.979Z,20.90
2019-06-20T03:40:29.368Z,21.00
2019-06-20T03:42:57.758Z,21.00
2019-06-20T03:45:26.156Z,21.00
2019-06-20T03:47:54.587Z,21.00
2019-06-20T03:50:22.995Z,21.00
2019-06-20T03:52:53.016Z,21.10
2019-06-20T03:55:21.434Z,21.00
2019-06-20T03:57:49.813Z,21.00
2019-06-20T04:00:21.271Z,21.10
2019-06-20T04:02:49.700Z,21.10
2019-06-20T04:05:18.148Z,21.10
2019-06-20T04:07:46.543Z,21.10
2019-06-20T04:10:14.937Z,21.20
2019-06-20T04:12:43.339Z,21.20
2019-06-20T04:15:19.039Z,21.20
2019-06-20T04:17:41.769Z,21.30
2019-06-20T04:20:10.154Z,21.30
2019-06-20T04:22:38.617Z,21.30
2019-06-20T04:25:07.349Z,21.30
2019-06-20T04:27:35.777Z,21.40
2019-06-20T04:30:06.757Z,21.40
2019-06-20T04:32:35.247Z,21.50
2019-06-20T04:35:05.095Z,21.60
2019-06-20T04:37:33.492Z,21.60
2019-06-20T04:40:01.915Z,21.70
2019-06-20T04:42:30.331Z,21.80
2019-06-20T04:45:00.565Z,21.90
2019-06-20T04:47:28.911Z,22.00
2019-06-20T04:49:57.315Z,22.00
2019-06-20T04:52:25.746Z,22.10
2019-06-20T04:54:54.132Z,22.20
2019-06-20T04:57:22.511Z,22.30
2019-06-20T04:59:52.588Z,22.40
2019-06-20T05:02:22.620Z,22.40
2019-06-20T05:04:51.001Z,22.50
2019-06-20T05:07:19.501Z,22.60
2019-06-20T05:09:47.880Z,22.70
2019-06-20T05:12:16.271Z,22.80
2019-06-20T05:14:44.681Z,22.90
2019-06-20T05:17:13.055Z,23.00
2019-06-20T05:19:41.468Z,23.00
2019-06-20T05:22:09.908Z,23.10
2019-06-20T05:24:38.301Z,23.20
2019-06-20T05:27:06.695Z,23.20
2019-06-20T05:29:35.126Z,23.30
2019-06-20T05:32:03.512Z,23.30
2019-06-20T05:34:31.902Z,23.40
2019-06-20T05:37:00.457Z,23.40
2019-06-20T05:39:28.846Z,23.40
2019-06-20T05:41:57.270Z,23.40
2019-06-20T05:44:25.669Z,23.40
2019-06-20T05:47:08.542Z,23.40
2019-06-20T05:49:24.180Z,23.30
2019-06-20T05:51:52.569Z,23.30
2019-06-20T05:54:20.952Z,23.40
2019-06-20T05:56:49.379Z,23.30
2019-06-20T05:59:17.859Z,23.30
2019-06-20T06:01:46.987Z,23.30
2019-06-20T06:04:15.543Z,23.30
2019-06-20T06:06:43.937Z,23.30
2019-06-20T06:09:12.335Z,23.30
2019-06-20T06:11:40.816Z,23.30
2019-06-20T06:14:09.235Z,23.30
2019-06-20T06:16:37.624Z,23.30
2019-06-20T06:19:06.015Z,23.30
2019-06-20T06:21:34.446Z,23.30
2019-06-20T06:24:02.835Z,23.30
2019-06-20T06:26:31.219Z,23.30
2019-06-20T06:28:59.646Z,23.20
2019-06-20T06:31:28.041Z,23.20
2019-06-20T06:33:56.443Z,23.20
2019-06-20T06:36:24.831Z,23.10
2019-06-20T06:38:53.232Z,23.10
2019-06-20T06:41:21.653Z,23.10
2019-06-20T06:43:50.057Z,23.10
2019-06-20T06:46:18.447Z,23.20
2019-06-20T06:48:46.854Z,23.20
2019-06-20T06:51:15.271Z,23.20
2019-06-20T06:53:43.676Z,23.20
2019-06-20T06:56:12.097Z,23.20
2019-06-20T06:58:40.481Z,23.20
2019-06-20T07:01:10.308Z,23.30
2019-06-20T07:03:38.907Z,23.20
2019-06-20T07:06:07.344Z,23.20
2019-06-20T07:08:35.737Z,23.30
2019-06-20T07:11:04.139Z,23.40
2019-06-20T07:13:32.515Z,23.40
2019-06-20T07:16:00.970Z,23.40
2019-06-20T07:18:29.319Z,23.50
2019-06-20T07:20:57.707Z,23.60
2019-06-20T07:23:26.112Z,23.60
2019-06-20T07:25:54.498Z,23.60
2019-06-20T07:28:22.979Z,23.70
2019-06-20T07:30:51.373Z,23.70
2019-06-20T07:33:19.765Z,23.70
2019-06-20T07:35:48.159Z,23.80
2019-06-20T07:38:16.566Z,23.80
2019-06-20T07:40:45.047Z,23.90
2019-06-20T07:43:13.440Z,23.90
2019-06-20T07:45:41.817Z,23.90
2019-06-20T07:48:10.242Z,24.00
2019-06-20T07:50:39.486Z,24.00
2019-06-20T07:53:07.999Z,24.00
2019-06-20T07:55:36.403Z,24.10
2019-06-20T07:58:04.788Z,24.20
2019-06-20T08:00:33.213Z,24.30
2019-06-20T08:03:01.596Z,24.30
2019-06-20T08:05:29.976Z,24.40
2019-06-20T08:07:58.422Z,24.40
2019-06-20T08:10:26.805Z,24.50
2019-06-20T08:12:55.198Z,24.60
2019-06-20T08:15:23.860Z,24.70
2019-06-20T08:17:52.244Z,24.80
2019-06-20T08:20:20.650Z,24.90
2019-06-20T08:22:49.079Z,25.00
2019-06-20T08:25:17.464Z,25.10
2019-06-20T08:27:51.772Z,25.20
2019-06-20T08:30:24.730Z,25.20
2019-06-20T08:32:53.154Z,25.30
2019-06-20T08:35:22.083Z,25.30
2019-06-20T08:37:51.111Z,25.40
2019-06-20T08:40:41.720Z,25.40
2019-06-20T08:43:10.304Z,25.50
2019-06-20T08:45:39.167Z,25.60
2019-06-20T08:48:07.623Z,25.70
2019-06-20T08:50:36.021Z,25.80
2019-06-20T08:53:05.840Z,25.80
2019-06-20T08:55:34.699Z,25.80
2019-06-20T08:58:03.441Z,25.80
2019-06-20T09:00:32.552Z,25.80
2019-06-20T09:05:30.682Z,25.90
2019-06-20T09:10:37.991Z,26.00
2019-06-20T09:13:06.965Z,26.00
2019-06-20T09:15:35.348Z,26.10
2019-06-20T09:18:03.751Z,26.10
2019-06-20T09:20:32.205Z,26.10
2019-06-20T09:23:01.075Z,26.10
2019-06-20T09:25:29.611Z,26.10
2019-06-20T09:27:58.655Z,26.10
2019-06-20T09:30:27.631Z,26.10
2019-06-20T09:32:56.113Z,26.10
2019-06-20T09:35:24.496Z,26.20
2019-06-20T09:37:53.712Z,26.20
2019-06-20T09:40:22.205Z,26.20
2019-06-20T09:42:51.696Z,26.10
2019-06-20T09:45:20.705Z,26.10
2019-06-20T09:47:50.461Z,26.10
2019-06-20T09:50:20.341Z,26.00
2019-06-20T09:52:51.086Z,26.00
2019-06-20T09:55:18.830Z,26.00
2019-06-20T09:57:48.644Z,26.10
2019-06-20T10:00:23.116Z,26.10
2019-06-20T10:02:52.435Z,26.00
2019-06-20T10:05:21.561Z,26.10
2019-06-20T10:07:50.305Z,26.10
2019-06-20T10:10:18.899Z,26.10
2019-06-20T10:12:47.921Z,26.00
2019-06-20T10:15:23.970Z,26.00
2019-06-20T10:17:52.404Z,26.00
2019-06-20T10:20:21.765Z,26.00
2019-06-20T10:22:50.952Z,26.00
2019-06-20T10:25:20.272Z,25.90
2019-06-20T10:27:49.755Z,25.90
2019-06-20T10:30:19.855Z,25.90
2019-06-20T10:32:48.691Z,25.80
2019-06-20T10:35:17.121Z,25.80
2019-06-20T10:37:46.855Z,25.80
2019-06-20T10:40:17.359Z,25.80
2019-06-20T10:42:46.065Z,25.80
2019-06-20T10:45:14.916Z,25.80
2019-06-20T10:47:44.073Z,25.90
2019-06-20T10:50:13.342Z,25.90
2019-06-20T10:52:42.552Z,26.00
2019-06-20T10:55:11.768Z,26.00
2019-06-20T10:57:41.272Z,26.00
2019-06-20T11:00:11.935Z,26.00
2019-06-20T11:02:41.709Z,26.10
2019-06-20T11:05:10.367Z,26.10
2019-06-20T11:07:38.948Z,26.10
2019-06-20T11:10:09.819Z,26.20
2019-06-20T11:12:45.655Z,26.30
2019-06-20T11:15:09.195Z,26.40
2019-06-20T11:17:38.749Z,26.40
2019-06-20T11:20:08.220Z,26.50
2019-06-20T11:22:37.807Z,26.50
2019-06-20T11:25:08.431Z,26.50
2019-06-20T11:27:37.664Z,26.50
2019-06-20T11:30:11.828Z,26.50
2019-06-20T11:32:40.997Z,26.50
2019-06-20T11:35:09.491Z,26.60
2019-06-20T11:37:37.906Z,26.60
2019-06-20T11:40:07.648Z,26.70
2019-06-20T11:42:36.127Z,26.80
2019-06-20T11:45:07.993Z,26.90
2019-06-20T11:47:36.627Z,27.00
2019-06-20T11:50:08.037Z,27.10
2019-06-20T11:52:41.031Z,27.20
2019-06-20T11:55:06.939Z,27.30
2019-06-20T11:57:35.312Z,27.40
2019-06-20T12:00:07.425Z,27.40
2019-06-20T12:02:35.854Z,27.50
2019-06-20T12:05:07.512Z,27.60
2019-06-20T12:07:35.886Z,27.60
2019-06-20T12:10:08.653Z,27.70
2019-06-20T12:12:39.082Z,27.80
2019-06-20T12:15:07.893Z,27.80
2019-06-20T12:17:36.302Z,27.90
2019-06-20T12:20:06.030Z,28.00
2019-06-20T12:22:34.445Z,28.10
2019-06-20T12:25:03.191Z,28.10
2019-06-20T12:27:31.592Z,28.20
2019-06-20T12:29:59.997Z,28.30
2019-06-20T12:32:28.449Z,28.40
2019-06-20T12:34:56.841Z,28.50
2019-06-20T12:37:25.284Z,28.50
2019-06-20T12:39:53.675Z,28.70
2019-06-20T12:42:22.015Z,28.70
2019-06-20T12:44:50.797Z,28.80
2019-06-20T12:47:19.343Z,28.90
2019-06-20T12:49:47.732Z,29.00
2019-06-20T12:52:16.123Z,29.10
2019-06-20T12:54:44.938Z,29.10
2019-06-20T12:57:13.460Z,29.10
2019-06-20T12:59:42.695Z,29.30
2019-06-20T13:02:11.437Z,29.40
2019-06-20T13:04:39.993Z,29.40
2019-06-20T13:07:08.347Z,29.50
2019-06-20T13:09:37.524Z,29.60
2019-06-20T13:12:06.822Z,29.70
2019-06-20T13:14:35.221Z,29.90
2019-06-20T13:17:03.632Z,30.00
2019-06-20T13:19:32.034Z,29.90
2019-06-20T13:22:00.428Z,30.10
2019-06-20T13:24:28.836Z,30.30
2019-06-20T13:26:57.315Z,30.60
2019-06-20T13:29:25.687Z,31.30
2019-06-20T13:32:03.506Z,32.10
2019-06-20T13:34:24.431Z,32.80
2019-06-20T13:36:52.838Z,33.40
2019-06-20T13:39:21.220Z,34.00
2019-06-20T13:41:50.340Z,35.30
2019-06-20T13:44:21.674Z,35.90
2019-06-20T13:46:50.223Z,36.70
2019-06-20T13:49:18.604Z,37.60
2019-06-20T13:51:47.705Z,38.70
2019-06-20T13:54:16.105Z,38.50
2019-06-20T13:56:45.372Z,38.50
2019-06-20T13:59:13.795Z,38.70
2019-06-20T14:01:44.058Z,38.60
2019-06-20T14:04:12.245Z,37.90
2019-06-20T14:06:42.056Z,37.80
2019-06-20T14:09:10.695Z,38.10
2019-06-20T14:11:40.031Z,38.60
2019-06-20T14:14:09.150Z,38.20
2019-06-20T14:16:37.540Z,37.50
2019-06-20T14:19:05.920Z,36.80
2019-06-20T14:21:34.368Z,35.90
2019-06-20T14:24:02.850Z,35.60
2019-06-20T14:26:31.267Z,35.00
2019-06-20T14:28:59.652Z,34.90
2019-06-20T14:31:28.072Z,35.30
2019-06-20T14:33:56.456Z,35.60
2019-06-20T14:36:24.831Z,35.70
2019-06-20T14:38:53.810Z,35.60
2019-06-20T14:41:22.278Z,35.50
2019-06-20T14:43:51.807Z,36.70
2019-06-20T14:46:20.302Z,38.20
2019-06-20T14:48:50.099Z,40.20
2019-06-20T14:51:18.600Z,41.90
2019-06-20T14:53:47.235Z,43.40
2019-06-20T14:56:15.686Z,44.00
2019-06-20T14:58:44.933Z,44.70
2019-06-20T15:01:13.511Z,44.90
2019-06-20T15:03:41.876Z,44.90
2019-06-20T15:06:10.278Z,44.70
2019-06-20T15:08:38.700Z,45.00
2019-06-20T15:11:07.088Z,45.00
2019-06-20T15:13:35.470Z,45.30
2019-06-20T15:16:03.882Z,45.40
2019-06-20T15:18:32.268Z,45.40
2019-06-20T15:21:00.667Z,44.50
2019-06-20T15:23:29.161Z,43.30
2019-06-20T15:25:57.558Z,41.90
2019-06-20T15:28:26.034Z,40.50
2019-06-20T15:30:54.879Z,39.30
2019-06-20T15:33:23.240Z,38.10
2019-06-20T15:35:53.454Z,37.30
2019-06-20T15:38:21.734Z,36.50
2019-06-20T15:40:51.406Z,36.00
2019-06-20T15:43:20.018Z,35.40
2019-06-20T15:45:49.893Z,34.70
2019-06-20T15:48:18.744Z,34.20
2019-06-20T15:50:47.171Z,33.70
2019-06-20T15:53:15.549Z,33.20
2019-06-20T15:55:43.923Z,32.90
2019-06-20T15:58:12.340Z,32.80
2019-06-20T16:00:40.716Z,32.50
2019-06-20T16:03:10.641Z,32.30
2019-06-20T16:05:40.600Z,32.10
2019-06-20T16:08:09.123Z,31.80
2019-06-20T16:10:37.498Z,31.60
2019-06-20T16:13:05.937Z,31.30
2019-06-20T16:15:34.329Z,31.10
2019-06-20T16:18:02.700Z,30.90
2019-06-20T16:20:31.148Z,30.80
2019-06-20T16:22:59.507Z,30.70
2019-06-20T16:25:27.896Z,30.70
2019-06-20T16:27:56.284Z,30.60
2019-06-20T16:30:24.700Z,30.50
2019-06-20T16:32:53.156Z,30.40
2019-06-20T16:35:21.593Z,30.30
2019-06-20T16:37:49.963Z,30.20
2019-06-20T16:40:21.630Z,30.20
2019-06-20T16:42:50.104Z,30.20
2019-06-20T16:45:18.519Z,30.20
2019-06-20T16:47:46.876Z,30.20
2019-06-20T16:50:16.594Z,30.10
2019-06-20T16:52:44.993Z,30.00
2019-06-20T16:55:13.399Z,29.90
2019-06-20T16:57:41.804Z,29.90
2019-06-20T17:00:10.672Z,29.80
2019-06-20T17:02:39.358Z,29.80
2019-06-20T17:05:07.738Z,29.70
2019-06-20T17:07:36.158Z,29.60
2019-06-20T17:10:07.269Z,29.50
2019-06-20T17:12:35.655Z,29.50
2019-06-20T17:15:05.535Z,29.40
2019-06-20T17:17:33.892Z,29.40
2019-06-20T17:20:02.353Z,29.30
2019-06-20T17:22:30.810Z,29.20
2019-06-20T17:24:59.183Z,29.20
2019-06-20T17:27:27.556Z,29.20
2019-06-20T17:29:55.993Z,29.10
2019-06-20T17:32:24.376Z,29.10
2019-06-20T17:34:52.776Z,29.00
2019-06-20T17:37:21.175Z,29.00
2019-06-20T17:39:49.543Z,28.90
2019-06-20T17:42:17.916Z,28.90
2019-06-20T17:44:46.321Z,28.80
2019-06-20T17:47:14.692Z,28.70
2019-06-20T17:49:43.089Z,28.70
2019-06-20T17:52:11.511Z,28.60
2019-06-20T17:54:39.932Z,28.60
2019-06-20T17:57:08.318Z,28.60
2019-06-20T17:59:36.781Z,28.50
2019-06-20T18:02:05.136Z,28.50
2019-06-20T18:04:33.512Z,28.40
2019-06-20T18:07:02.208Z,28.30
2019-06-20T18:09:30.808Z,28.20
2019-06-20T18:11:59.311Z,28.20
2019-06-20T18:14:27.725Z,28.10
2019-06-20T18:16:56.127Z,28.10
2019-06-20T18:19:24.532Z,28.10
2019-06-20T18:21:52.934Z,28.00
2019-06-20T18:24:21.337Z,28.00
2019-06-20T18:26:49.732Z,27.90
2019-06-20T18:29:18.132Z,27.90
2019-06-20T18:31:46.536Z,27.90
2019-06-20T18:34:29.209Z,27.80
2019-06-20T18:36:45.022Z,27.80
2019-06-20T18:39:13.440Z,27.80
2019-06-20T18:41:41.816Z,27.70
2019-06-20T18:44:10.217Z,27.70
2019-06-20T18:46:38.657Z,27.60
2019-06-20T18:49:07.104Z,27.70
2019-06-20T18:51:35.531Z,27.60
2019-06-20T18:54:04.384Z,27.60
2019-06-20T18:56:32.857Z,27.60
2019-06-20T18:59:01.407Z,27.50
2019-06-20T19:01:29.841Z,27.50
2019-06-20T19:03:58.238Z,27.50
2019-06-20T19:06:35.914Z,27.50
2019-06-20T19:08:56.668Z,27.50
2019-06-20T19:11:25.048Z,27.50
2019-06-20T19:13:53.516Z,27.40
2019-06-20T19:16:21.921Z,27.30
2019-06-20T19:18:50.374Z,27.30
2019-06-20T19:21:19.684Z,27.30
2019-06-20T19:23:55.021Z,27.20
2019-06-20T19:26:21.393Z,27.20
2019-06-20T19:28:49.930Z,27.20
2019-06-20T19:31:21.045Z,27.10
2019-06-20T19:33:52.028Z,27.00
2019-06-20T19:36:19.434Z,26.80
2019-06-20T19:38:47.817Z,26.80
2019-06-20T19:41:16.274Z,26.70
2019-06-20T19:43:44.645Z,26.70
2019-06-20T19:46:13.108Z,26.60
2019-06-20T19:48:41.508Z,26.60
2019-06-20T19:51:09.893Z,26.60
2019-06-20T19:53:38.292Z,26.50
2019-06-20T19:56:06.677Z,26.50
2019-06-20T19:58:35.160Z,26.30
2019-06-20T20:01:03.662Z,26.30
2019-06-20T20:03:32.151Z,26.20
2019-06-20T20:06:02.184Z,26.20
2019-06-20T20:08:30.556Z,26.10
2019-06-20T20:10:58.941Z,26.10
2019-06-20T20:13:27.580Z,26.00
2019-06-20T20:15:55.894Z,26.00
2019-06-20T20:18:24.320Z,26.00
2019-06-20T20:20:52.738Z,26.00
2019-06-20T20:23:21.121Z,25.90
2019-06-20T20:25:49.581Z,25.80
2019-06-20T20:28:17.975Z,25.80
2019-06-20T20:30:46.336Z,25.70
2019-06-20T20:33:14.803Z,25.70
2019-06-20T20:35:43.184Z,25.70
2019-06-20T20:38:11.602Z,25.70
2019-06-20T20:40:40.023Z,25.60
2019-06-20T20:43:08.423Z,25.60
2019-06-20T20:45:36.812Z,25.50
2019-06-20T20:48:05.312Z,25.50
2019-06-20T20:50:33.699Z,25.30
2019-06-20T20:53:02.085Z,25.30
2019-06-20T20:55:30.486Z,25.30
2019-06-20T20:57:59.048Z,25.30
2019-06-20T21:00:32.908Z,25.40
2019-06-20T21:03:01.280Z,25.30
2019-06-20T21:05:29.710Z,25.40
2019-06-20T21:07:58.130Z,25.40
2019-06-20T21:10:26.506Z,25.40
2019-06-20T21:12:54.885Z,25.70
2019-06-20T21:15:23.294Z,26.00
2019-06-20T21:17:51.682Z,26.00
2019-06-20T21:20:20.086Z,26.00
2019-06-20T21:22:48.500Z,25.80
2019-06-20T21:25:17.127Z,25.70
2019-06-20T21:27:45.504Z,25.60
2019-06-20T21:30:15.296Z,25.60
2019-06-20T21:32:43.704Z,25.60
2019-06-20T21:35:12.079Z,25.30
2019-06-20T21:37:40.474Z,25.20
2019-06-20T21:40:08.856Z,25.20
2019-06-20T21:42:37.279Z,25.00
2019-06-20T21:45:06.224Z,24.90
2019-06-20T21:47:34.608Z,24.80
2019-06-20T21:50:03.113Z,24.80
2019-06-20T21:52:31.501Z,24.80
2019-06-20T21:54:59.894Z,24.70
2019-06-20T21:57:28.309Z,24.70
2019-06-20T21:59:56.708Z,24.50
2019-06-20T22:02:25.376Z,24.50
2019-06-20T22:04:54.897Z,24.30
2019-06-20T22:07:24.130Z,24.10
2019-06-20T22:09:52.505Z,23.90
2019-06-20T22:12:20.900Z,23.60
2019-06-20T22:14:49.325Z,23.70
2019-06-20T22:17:17.742Z,23.60
2019-06-20T22:19:46.101Z,23.60
2019-06-20T22:22:14.540Z,23.50
2019-06-20T22:24:42.925Z,23.50
2019-06-20T22:27:11.312Z,23.40
2019-06-20T22:29:39.772Z,23.30
2019-06-20T22:32:08.152Z,23.30
2019-06-20T22:34:36.532Z,23.20
2019-06-20T22:37:04.952Z,23.30
2019-06-20T22:39:33.324Z,23.30
2019-06-20T22:42:04.577Z,23.30
2019-06-20T22:44:38.385Z,23.30
2019-06-20T22:47:06.777Z,23.30
2019-06-20T22:49:35.150Z,23.30
2019-06-20T22:52:03.540Z,23.40
2019-06-20T22:54:33.844Z,23.30
2019-06-20T22:57:04.889Z,23.40
2019-06-20T22:59:33.280Z,23.30
2019-06-20T23:02:01.663Z,23.30
2019-06-20T23:04:30.044Z,23.20
2019-06-20T23:06:58.512Z,23.20
2019-06-20T23:09:27.511Z,23.30
2019-06-20T23:11:55.988Z,23.20
2019-06-20T23:14:24.480Z,23.00
2019-06-20T23:16:52.861Z,22.90
2019-06-20T23:19:21.248Z,22.80
2019-06-20T23:21:49.628Z,22.60
2019-06-20T23:24:18.054Z,22.40
2019-06-20T23:26:46.440Z,22.30
2019-06-20T23:29:23.724Z,22.20
2019-06-20T23:31:53.056Z,22.30
2019-06-20T23:34:21.463Z,22.30
2019-06-20T23:36:49.881Z,22.30
2019-06-20T23:39:18.412Z,22.30
2019-06-20T23:41:46.861Z,22.40
2019-06-20T23:44:15.228Z,22.50
2019-06-20T23:46:43.742Z,22.50
2019-06-20T23:49:12.202Z,22.40
2019-06-20T23:51:45.216Z,22.30
2019-06-20T23:54:13.632Z,22.30
2019-06-20T23:56:42.016Z,22.30
2019-06-20T23:59:10.432Z,22.30
